Time;durP1;ratioP1;P1;durP2;ratioP2;P2;SDS_P1;SDS_P2;PMS_P1;PMS_P2;Temp;Humidity;BMP_temperature;BMP_pressure;BME280_temperature;BME280_humidity;BME280_pressure;Samples;Min_cycle;Max_cycle;Signal;HPM_P1;HPM_P2
2021/06/26 05:01:52;;;;;;;5.00;2.00;;;;;;;15.13;67.17;92820.16;5112959;24;20429;-78
2021/06/26 05:04:19;;;;;;;5.07;2.00;;;;;;;15.18;66.81;92831.34;4773038;30;20034;-79
2021/06/26 05:06:44;;;;;;;4.78;1.83;;;;;;;15.25;66.95;92824.88;4779932;30;20152;-77
2021/06/26 05:09:10;;;;;;;4.00;1.80;;;;;;;15.30;67.40;92828.13;4788418;29;20122;-79
2021/06/26 05:11:36;;;;;;;3.83;1.83;;;;;;;15.40;67.62;92821.78;4761503;30;20050;-78
2021/06/26 05:14:01;;;;;;;3.13;1.73;;;;;;;15.51;67.76;92824.91;4769377;30;20053;-77
2021/06/26 05:16:27;;;;;;;9.75;2.03;;;;;;;15.60;67.17;92831.78;4769434;30;20056;-77
2021/06/26 05:18:52;;;;;;;7.38;2.10;;;;;;;15.69;66.39;92826.47;4777453;30;20055;-78
2021/06/26 05:21:19;;;;;;;3.90;1.90;;;;;;;15.80;65.90;92827.00;4772132;30;20418;-78
2021/06/26 05:23:45;;;;;;;5.65;2.10;;;;;;;15.88;65.81;92831.50;4771242;30;20055;-77
2021/06/26 05:26:11;;;;;;;5.63;1.98;;;;;;;15.97;65.23;92824.38;4788289;30;20066;-77
2021/06/26 05:28:37;;;;;;;4.60;1.63;;;;;;;16.08;65.28;92827.47;4787672;30;20126;-77
2021/06/26 05:31:04;;;;;;;4.60;1.67;;;;;;;16.20;64.86;92830.25;4788189;30;20147;-77
2021/06/26 05:33:30;;;;;;;3.22;1.80;;;;;;;16.34;65.38;92827.44;4770048;30;20123;-77
2021/06/26 05:35:55;;;;;;;3.50;2.22;;;;;;;16.50;65.48;92829.59;4771873;30;20147;-77
2021/06/26 05:38:21;;;;;;;5.35;1.80;;;;;;;16.64;65.52;92828.34;4788019;30;20079;-77
2021/06/26 05:40:47;;;;;;;5.45;1.83;;;;;;;16.76;65.70;92830.31;4787680;29;20053;-77
2021/06/26 05:43:13;;;;;;;3.70;1.88;;;;;;;16.90;65.27;92830.13;4787294;29;20131;-77
2021/06/26 05:45:39;;;;;;;4.65;1.95;;;;;;;17.15;64.63;92838.28;4772179;30;20112;-77
2021/06/26 05:48:05;;;;;;;5.75;1.90;;;;;;;18.40;61.64;92832.34;4770016;30;20047;-77
2021/06/26 05:50:31;;;;;;;3.70;1.80;;;;;;;21.48;53.11;92834.44;4771781;30;20067;-78
2021/06/26 05:52:57;;;;;;;6.20;1.90;;;;;;;24.04;45.63;92831.56;4772797;30;20047;-79
2021/06/26 05:55:25;;;;;;;5.10;1.88;;;;;;;25.86;39.99;92823.81;4765591;30;20530;-78
2021/06/26 05:57:51;;;;;;;2.92;1.65;;;;;;;27.22;36.98;92836.28;4759378;30;20058;-79
2021/06/26 06:00:18;;;;;;;2.70;1.70;;;;;;;28.19;35.00;92815.50;4773639;30;20063;-79
2021/06/26 06:02:45;;;;;;;2.90;1.60;;;;;;;29.03;31.43;92828.25;4770692;30;20130;-79
2021/06/26 06:05:14;;;;;;;4.90;2.20;;;;;;;29.20;34.68;92829.31;4773829;30;20043;-79
2021/06/26 06:07:43;;;;;;;4.57;2.25;;;;;;;29.61;34.39;92829.41;4774006;30;20051;-79
2021/06/26 06:10:11;;;;;;;5.40;2.22;;;;;;;29.08;35.61;92832.47;4787970;30;20047;-79
2021/06/26 06:12:38;;;;;;;6.05;2.58;;;;;;;29.84;33.64;92836.19;4804884;29;20509;-80
2021/06/26 06:15:08;;;;;;;3.60;2.00;;;;;;;30.65;31.98;92817.59;4765015;30;20044;-79
2021/06/26 06:17:34;;;;;;;4.60;2.38;;;;;;;30.17;32.58;92832.00;4788308;30;20458;-80
2021/06/26 06:20:04;;;;;;;4.95;2.38;;;;;;;30.42;32.42;92818.28;4789312;30;20059;-80
2021/06/26 06:22:30;;;;;;;8.98;2.50;;;;;;;30.64;31.51;92826.84;4783537;30;20134;-80
2021/06/26 06:24:55;;;;;;;6.22;2.15;;;;;;;31.30;31.39;92822.16;4762840;30;20407;-79
2021/06/26 06:27:21;;;;;;;6.78;2.20;;;;;;;31.79;30.32;92819.84;4781330;30;20062;-79
2021/06/26 06:29:49;;;;;;;4.38;2.20;;;;;;;32.05;31.00;92823.69;4788777;30;20065;-79
2021/06/26 06:32:14;;;;;;;7.15;2.30;;;;;;;31.83;29.77;92825.22;4787255;29;20054;-79
2021/06/26 06:34:40;;;;;;;3.80;2.20;;;;;;;31.12;31.17;92827.84;4757624;30;20043;-79
2021/06/26 06:37:06;;;;;;;6.22;2.05;;;;;;;29.44;33.69;92822.22;4772787;30;20634;-79
2021/06/26 06:39:31;;;;;;;5.00;2.20;;;;;;;29.19;35.04;92831.25;4772862;30;20055;-79
2021/06/26 06:41:57;;;;;;;9.48;2.30;;;;;;;28.78;35.96;92833.78;4788435;30;20553;-79
2021/06/26 06:44:23;;;;;;;4.47;2.10;;;;;;;27.81;37.79;92829.38;4790269;30;20055;-79
2021/06/26 06:46:49;;;;;;;4.03;1.98;;;;;;;25.79;42.20;92837.19;4769788;30;20596;-79
2021/06/26 06:49:15;;;;;;;5.88;2.30;;;;;;;24.90;44.25;92842.53;4777145;30;20141;-79
2021/06/26 06:51:42;;;;;;;7.55;2.17;;;;;;;23.75;47.22;92837.66;4760179;30;20052;-79
2021/06/26 06:54:07;;;;;;;4.18;2.25;;;;;;;23.03;48.68;92839.94;4772830;30;20044;-79
2021/06/26 06:56:33;;;;;;;10.95;2.45;;;;;;;23.02;49.78;92833.03;4773968;30;20070;-82
2021/06/26 06:59:08;;;;;;;9.70;2.40;;;;;;;22.49;50.58;92848.03;4797028;30;20154;-80
2021/06/26 07:01:52;;;;;;;5.55;2.10;;;;;;;22.24;51.46;92843.75;4771072;29;20142;-79
2021/06/26 07:04:18;;;;;;;5.15;2.20;;;;;;;21.81;52.26;92842.81;4774036;30;20080;-80
2021/06/26 07:06:44;;;;;;;5.47;2.22;;;;;;;21.74;50.67;92848.00;4761469;30;20479;-81
2021/06/26 07:09:09;;;;;;;7.57;2.40;;;;;;;21.19;54.70;92847.06;4766770;30;20050;-81
2021/06/26 07:11:35;;;;;;;5.00;2.15;;;;;;;21.54;54.20;92843.72;4776477;30;20067;-80
2021/06/26 07:14:00;;;;;;;8.43;2.42;;;;;;;21.91;50.81;92843.41;4778048;29;20091;-80
2021/06/26 07:16:26;;;;;;;5.25;2.10;;;;;;;21.49;52.92;92844.00;4778853;30;20060;-81
2021/06/26 07:18:52;;;;;;;8.63;2.15;;;;;;;21.47;53.69;92843.56;4771479;30;20494;-81
2021/06/26 07:21:17;;;;;;;4.53;2.17;;;;;;;21.74;51.71;92842.66;4791113;29;20081;-80
2021/06/26 07:23:43;;;;;;;7.30;2.08;;;;;;;21.31;52.82;92846.97;4776814;30;20052;-81
2021/06/26 07:26:08;;;;;;;6.57;2.28;;;;;;;21.69;51.75;92839.50;4778940;30;20055;-80
2021/06/26 07:28:34;;;;;;;4.95;2.47;;;;;;;21.68;52.33;92854.69;4781084;30;20066;-79
2021/06/26 07:31:00;;;;;;;6.00;2.72;;;;;;;21.49;51.94;92852.75;4779734;30;20118;-80
2021/06/26 07:33:25;;;;;;;4.90;2.30;;;;;;;21.82;51.55;92848.94;4781819;30;20051;-80
2021/06/26 07:35:51;;;;;;;5.35;2.15;;;;;;;21.71;51.25;92848.69;4775399;30;20063;-80
2021/06/26 07:38:17;;;;;;;6.00;2.20;;;;;;;22.01;49.98;92853.53;4779880;30;20409;-80
2021/06/26 07:40:42;;;;;;;7.13;2.50;;;;;;;22.56;48.57;92851.63;4774603;30;20059;-80
2021/06/26 07:43:08;;;;;;;3.53;2.00;;;;;;;22.37;47.83;92851.63;4778416;30;20405;-79
2021/06/26 07:45:34;;;;;;;4.05;1.98;;;;;;;22.51;45.02;92851.91;4780675;30;20059;-79
2021/06/26 07:47:59;;;;;;;4.35;2.20;;;;;;;22.39;45.84;92854.72;4781518;30;20055;-80
2021/06/26 07:50:25;;;;;;;5.28;2.47;;;;;;;22.18;50.53;92850.47;4773334;30;20063;-80
2021/06/26 07:52:50;;;;;;;4.32;2.40;;;;;;;22.32;50.64;92858.00;4778121;30;20059;-80
2021/06/26 07:55:16;;;;;;;3.67;2.20;;;;;;;22.27;50.21;92857.50;4772661;30;20040;-80
2021/06/26 07:57:42;;;;;;;5.75;2.45;;;;;;;22.82;50.37;92853.63;4775039;30;20087;-81
2021/06/26 08:00:08;;;;;;;5.25;2.35;;;;;;;22.82;49.63;92860.88;4788757;29;20057;-80
2021/06/26 08:02:35;;;;;;;3.65;2.08;;;;;;;22.60;50.37;92851.69;4764040;30;20064;-82
2021/06/26 08:05:00;;;;;;;4.38;2.30;;;;;;;21.92;51.86;92847.63;4763449;30;20044;-81
2021/06/26 08:07:26;;;;;;;12.73;2.75;;;;;;;21.99;51.00;92847.78;4764086;30;20056;-81
2021/06/26 08:09:51;;;;;;;4.70;2.33;;;;;;;21.52;53.61;92851.28;4761659;30;20086;-80
2021/06/26 08:12:18;;;;;;;8.50;2.50;;;;;;;21.52;52.33;92853.94;4758529;30;20060;-80
2021/06/26 08:14:44;;;;;;;10.65;2.33;;;;;;;21.86;51.14;92855.09;4766316;30;20052;-82
2021/06/26 08:17:14;;;;;;;4.57;2.50;;;;;;;22.01;51.14;92862.28;4764355;30;20056;-81
2021/06/26 08:19:40;;;;;;;4.65;2.33;;;;;;;22.18;51.12;92860.38;4760766;30;20591;-80
2021/06/26 08:22:06;;;;;;;3.85;2.28;;;;;;;21.71;50.79;92862.03;4753806;30;20063;-80
2021/06/26 08:24:32;;;;;;;6.05;2.40;;;;;;;21.48;51.63;92866.41;4764397;30;20044;-82
2021/06/26 08:26:59;;;;;;;5.88;2.20;;;;;;;21.49;53.26;92860.75;4758154;30;20056;-81
2021/06/26 08:29:25;;;;;;;5.47;2.50;;;;;;;21.61;52.88;92865.97;4756336;30;20054;-82
2021/06/26 08:31:50;;;;;;;5.90;2.40;;;;;;;22.00;51.12;92862.66;4752173;30;20045;-81
2021/06/26 08:34:16;;;;;;;4.30;2.45;;;;;;;22.20;50.78;92858.91;4756132;30;20473;-81
2021/06/26 08:36:42;;;;;;;4.55;2.38;;;;;;;22.10;49.87;92859.44;4753933;30;20750;-79
2021/06/26 08:39:07;;;;;;;10.10;2.80;;;;;;;21.91;51.02;92859.38;4750118;30;20550;-81
2021/06/26 08:41:41;;;;;;;6.18;2.33;;;;;;;22.01;49.91;92861.53;4750785;30;20064;-80
2021/06/26 08:44:07;;;;;;;6.68;2.30;;;;;;;22.11;51.28;92860.19;4755648;30;20074;-79
2021/06/26 08:46:40;;;;;;;7.53;2.60;;;;;;;21.93;52.00;92867.81;4743699;30;20593;-78
2021/06/26 08:49:06;;;;;;;8.05;2.50;;;;;;;22.06;51.23;92866.56;4746219;30;20542;-79
2021/06/26 08:51:32;;;;;;;5.18;2.67;;;;;;;22.02;51.32;92863.06;4748720;30;20044;-79
2021/06/26 08:53:57;;;;;;;8.68;2.58;;;;;;;22.27;49.27;92862.84;4752468;30;20508;-79
2021/06/26 08:56:23;;;;;;;6.53;2.83;;;;;;;22.37;50.32;92868.41;4750057;30;20059;-78
2021/06/26 08:58:48;;;;;;;9.43;3.17;;;;;;;22.09;50.69;92868.56;4742298;30;20061;-79
2021/06/26 09:01:14;;;;;;;4.88;2.83;;;;;;;21.80;50.36;92862.59;4765302;30;20055;-78
2021/06/26 09:03:40;;;;;;;8.82;2.38;;;;;;;21.68;50.39;92865.34;4772210;30;20552;-78
2021/06/26 09:06:07;;;;;;;6.65;2.75;;;;;;;22.39;48.56;92876.81;4767290;30;20080;-79
2021/06/26 09:08:32;;;;;;;5.90;2.60;;;;;;;22.39;49.05;92871.50;4771389;30;20414;-79
2021/06/26 09:10:59;;;;;;;7.65;3.50;;;;;;;22.65;46.67;92865.53;4777872;29;20047;-78
2021/06/26 09:13:27;;;;;;;8.35;3.47;;;;;;;22.47;49.94;92869.72;4773156;30;20058;-78
2021/06/26 09:16:11;;;;;;;4.80;2.72;;;;;;;22.88;48.65;92870.16;4770613;30;20484;-78
2021/06/26 09:18:44;;;;;;;6.68;2.92;;;;;;;23.13;48.49;92869.84;4772979;30;20051;-79
2021/06/26 09:21:35;;;;;;;8.02;2.80;;;;;;;22.65;48.59;92860.19;4764291;30;20051;-79
2021/06/26 09:24:10;;;;;;;4.80;2.70;;;;;;;22.97;49.85;92862.69;4766562;30;20044;-78
2021/06/26 09:26:40;;;;;;;6.43;3.00;;;;;;;23.15;49.73;92863.03;4771831;30;20055;-78
2021/06/26 09:29:15;;;;;;;5.57;2.63;;;;;;;23.46;48.91;92867.34;4759506;30;20147;-79
2021/06/26 09:31:58;;;;;;;10.30;3.58;;;;;;;23.31;46.85;92865.56;4769641;30;20052;-79
2021/06/26 09:34:44;;;;;;;8.30;3.22;;;;;;;23.13;48.72;92861.84;4755343;30;20048;-79
2021/06/26 09:37:22;;;;;;;5.45;2.97;;;;;;;23.16;50.64;92861.88;4767290;30;20044;-79
2021/06/26 09:39:51;;;;;;;7.25;3.85;;;;;;;22.98;45.83;92869.56;4765081;30;20187;-79
2021/06/26 09:42:20;;;;;;;7.45;3.42;;;;;;;22.80;47.45;92857.78;4772365;30;20046;-79
2021/06/26 09:45:08;;;;;;;6.63;3.25;;;;;;;23.43;48.84;92862.72;4770300;30;20031;-79
2021/06/26 09:47:36;;;;;;;8.93;3.20;;;;;;;23.10;46.75;92857.19;4767041;30;20044;-79
2021/06/26 09:50:26;;;;;;;8.48;3.47;;;;;;;23.09;45.24;92858.34;4758239;30;20043;-79
2021/06/26 09:52:55;;;;;;;8.18;3.47;;;;;;;23.40;44.28;92863.44;4767173;30;20047;-79
2021/06/26 09:55:25;;;;;;;8.57;3.30;;;;;;;23.55;46.61;92863.66;4764973;30;20082;-79
2021/06/26 09:57:56;;;;;;;5.85;3.00;;;;;;;23.64;47.31;92866.84;4770947;30;20606;-79
2021/06/26 10:00:24;;;;;;;8.40;3.08;;;;;;;23.63;45.96;92870.66;4771753;30;20532;-79
2021/06/26 10:02:51;;;;;;;6.10;2.53;;;;;;;23.25;44.15;92862.41;4769078;30;20052;-79
2021/06/26 10:05:18;;;;;;;8.98;3.03;;;;;;;23.21;45.72;92853.56;4768125;30;20143;-79
2021/06/26 10:07:45;;;;;;;12.40;2.97;;;;;;;23.27;44.61;92854.81;4753177;30;20106;-79
2021/06/26 10:10:14;;;;;;;5.22;2.95;;;;;;;23.38;42.80;92860.34;4770825;30;20118;-79
2021/06/26 10:12:41;;;;;;;7.53;3.03;;;;;;;23.35;45.64;92852.25;4771845;30;20100;-79
2021/06/26 10:15:10;;;;;;;7.30;2.95;;;;;;;23.11;47.45;92856.84;4761898;30;20047;-79
2021/06/26 10:17:36;;;;;;;9.77;3.10;;;;;;;23.38;47.73;92855.00;4756078;30;20115;-79
2021/06/26 10:20:07;;;;;;;9.10;3.20;;;;;;;23.57;44.98;92850.72;4757485;30;20079;-79
2021/06/26 10:22:38;;;;;;;8.13;3.15;;;;;;;23.87;45.29;92848.91;4785291;29;20078;-79
2021/06/26 10:25:06;;;;;;;6.70;3.20;;;;;;;23.74;43.98;92850.22;4769670;30;20047;-79
2021/06/26 10:27:33;;;;;;;6.53;3.40;;;;;;;23.65;42.36;92857.72;4769562;30;20044;-78
2021/06/26 10:30:15;;;;;;;6.60;3.20;;;;;;;23.83;42.70;92847.31;4771212;30;20067;-79
2021/06/26 10:33:01;;;;;;;6.15;2.33;;;;;;;23.23;42.11;92853.97;4770325;30;20036;-79
2021/06/26 10:35:31;;;;;;;9.65;2.92;;;;;;;23.31;43.28;92846.88;4771798;30;20130;-79
2021/06/26 10:38:11;;;;;;;4.03;2.33;;;;;;;23.79;43.57;92847.25;4772430;30;20048;-78
2021/06/26 10:40:46;;;;;;;5.05;2.50;;;;;;;24.00;41.27;92841.47;4771197;30;20514;-79
2021/06/26 10:43:12;;;;;;;8.73;2.60;;;;;;;23.85;42.26;92839.72;4771878;30;20051;-79
2021/06/26 10:45:38;;;;;;;4.28;2.63;;;;;;;24.24;40.92;92845.56;4763999;30;20522;-79
2021/06/26 10:48:17;;;;;;;9.77;3.42;;;;;;;24.94;41.92;92837.97;4757102;30;20060;-79
2021/06/26 10:50:54;;;;;;;6.82;2.95;;;;;;;24.87;41.87;92843.25;4760559;30;20423;-79
2021/06/26 10:53:32;;;;;;;12.30;3.10;;;;;;;24.61;42.94;92838.78;4772899;30;20043;-80
2021/06/26 10:56:06;;;;;;;10.00;2.90;;;;;;;24.46;40.72;92837.81;4770257;30;20063;-79
2021/06/26 10:58:43;;;;;;;9.23;3.40;;;;;;;24.47;42.42;92837.47;4773591;30;20055;-79
2021/06/26 11:01:20;;;;;;;7.18;2.90;;;;;;;24.15;45.26;92837.06;4769213;30;20058;-79
2021/06/26 11:03:49;;;;;;;8.50;3.20;;;;;;;24.08;43.98;92828.94;4766632;30;20047;-79
2021/06/26 11:06:27;;;;;;;6.93;3.30;;;;;;;24.17;42.91;92829.44;4779507;30;20051;-79
2021/06/26 11:09:06;;;;;;;5.80;3.40;;;;;;;24.90;41.74;92831.81;4773497;30;20051;-79
2021/06/26 11:11:36;;;;;;;6.32;3.22;;;;;;;24.78;44.87;92829.41;4785960;29;20054;-80
2021/06/26 11:14:09;;;;;;;7.88;3.30;;;;;;;24.63;41.88;92829.25;4764880;29;20048;-78
2021/06/26 11:16:36;;;;;;;10.63;2.97;;;;;;;24.33;42.95;92829.25;4783803;30;20055;-76
2021/06/26 11:19:02;;;;;;;9.45;3.50;;;;;;;24.25;46.73;92828.41;4784731;30;20457;-76
2021/06/26 11:21:28;;;;;;;6.00;3.25;;;;;;;24.07;43.46;92822.03;4784008;29;20058;-78
2021/06/26 11:23:53;;;;;;;11.02;3.22;;;;;;;24.45;43.15;92836.25;4771718;30;20074;-77
2021/06/26 11:26:19;;;;;;;7.15;3.30;;;;;;;24.42;40.62;92834.34;4767309;30;20051;-77
2021/06/26 11:28:45;;;;;;;11.05;3.50;;;;;;;24.51;41.16;92832.94;4778068;30;20105;-77
2021/06/26 11:31:12;;;;;;;9.75;3.67;;;;;;;24.20;42.97;92827.94;4781301;29;20082;-77
2021/06/26 11:33:42;;;;;;;7.25;3.47;;;;;;;24.48;42.11;92828.31;4781320;30;20630;-76
2021/06/26 11:36:10;;;;;;;5.50;3.50;;;;;;;24.96;41.84;92835.72;4772358;30;20094;-78
2021/06/26 11:38:36;;;;;;;8.45;4.32;;;;;;;24.50;42.57;92819.94;4776072;30;20514;-78
2021/06/26 11:41:12;;;;;;;7.70;4.13;;;;;;;24.17;43.93;92826.00;4781858;30;20451;-77
2021/06/26 11:43:46;;;;;;;7.90;3.60;;;;;;;24.56;41.77;92818.47;4768961;30;20473;-78
2021/06/26 11:46:12;;;;;;;10.52;3.67;;;;;;;24.52;43.48;92818.44;4769706;29;20051;-77
2021/06/26 11:48:37;;;;;;;12.63;4.05;;;;;;;24.54;44.42;92812.69;4768821;30;20084;-77
2021/06/26 11:51:05;;;;;;;6.95;3.92;;;;;;;24.42;42.60;92810.25;4769134;30;20605;-77
2021/06/26 11:53:36;;;;;;;12.18;3.80;;;;;;;24.83;44.09;92810.34;4788039;30;20055;-78
2021/06/26 11:56:03;;;;;;;8.75;4.35;;;;;;;24.31;44.58;92800.19;4787499;30;20051;-78
2021/06/26 11:58:49;;;;;;;9.50;4.20;;;;;;;24.94;43.62;92811.19;4786384;30;20074;-78
2021/06/26 12:01:36;;;;;;;11.15;4.20;;;;;;;25.45;42.18;92807.84;4764985;30;20051;-76
2021/06/26 12:04:02;;;;;;;11.13;4.43;;;;;;;25.07;40.69;92809.03;4764314;30;20565;-79
2021/06/26 12:06:37;;;;;;;8.95;4.63;;;;;;;25.36;40.42;92803.97;4767825;30;20439;-78
2021/06/26 12:09:05;;;;;;;8.38;3.88;;;;;;;25.81;39.98;92793.94;4777192;30;20055;-79
2021/06/26 12:11:38;;;;;;;9.45;3.88;;;;;;;25.06;40.17;92802.91;4768210;30;20185;-79
2021/06/26 12:14:04;;;;;;;7.63;3.92;;;;;;;24.69;40.19;92806.38;4756674;29;20055;-78
2021/06/26 12:16:33;;;;;;;10.93;4.22;;;;;;;24.54;41.27;92799.31;4769976;29;20062;-79
2021/06/26 12:19:05;;;;;;;9.27;3.90;;;;;;;24.67;42.58;92792.59;4789729;29;20046;-79
2021/06/26 12:21:48;;;;;;;15.27;3.92;;;;;;;24.68;41.98;92796.81;4780571;29;20055;-78
2021/06/26 12:24:27;;;;;;;9.85;4.20;;;;;;;24.86;41.89;92782.84;4765202;29;20047;-79
2021/06/26 12:27:19;;;;;;;7.53;3.83;;;;;;;24.43;41.76;92791.16;4781121;29;20509;-79
2021/06/26 12:30:00;;;;;;;15.63;4.55;;;;;;;24.20;42.60;92793.94;4788958;29;20421;-79
2021/06/26 12:32:32;;;;;;;9.18;3.90;;;;;;;23.80;43.41;92792.69;4787367;29;20047;-78
2021/06/26 12:34:59;;;;;;;12.57;4.22;;;;;;;24.10;43.84;92783.91;4787398;30;20087;-79
2021/06/26 12:37:43;;;;;;;14.13;4.50;;;;;;;24.60;42.18;92781.81;4770977;30;20055;-79
2021/06/26 12:40:31;;;;;;;6.97;4.05;;;;;;;24.25;43.08;92774.91;4785572;29;20057;-79
2021/06/26 12:42:59;;;;;;;8.68;4.00;;;;;;;23.78;43.91;92773.56;4788427;30;20055;-79
2021/06/26 12:45:34;;;;;;;12.40;4.35;;;;;;;23.97;44.60;92777.22;4786973;29;20043;-79
2021/06/26 12:48:06;;;;;;;11.93;4.45;;;;;;;24.48;41.87;92777.47;4787232;30;20066;-79
2021/06/26 12:50:35;;;;;;;;;;;;;;;25.18;40.66;92777.75;4772029;30;20051;-80
2021/06/26 12:53:01;;;;;;;7.82;3.88;;;;;;;25.25;42.46;92780.50;4769406;30;19948;-80
2021/06/26 12:55:27;;;;;;;8.27;4.20;;;;;;;24.39;41.35;92776.22;4770079;30;20051;-79
2021/06/26 12:57:55;;;;;;;10.73;3.80;;;;;;;24.86;42.43;92772.13;4788333;29;20081;-79
2021/06/26 13:00:22;;;;;;;7.68;3.92;;;;;;;24.48;42.53;92768.69;4766716;30;20055;-80
2021/06/26 13:02:48;;;;;;;9.38;4.45;;;;;;;25.04;43.86;92767.69;4754618;30;20060;-80
2021/06/26 13:05:19;;;;;;;6.38;4.00;;;;;;;24.69;43.10;92762.78;4756853;30;20051;-79
2021/06/26 13:07:44;;;;;;;7.75;3.72;;;;;;;25.07;42.90;92766.94;4757878;30;20519;-81
2021/06/26 13:10:10;;;;;;;8.90;3.97;;;;;;;24.58;44.25;92757.31;4742879;30;20073;-80
2021/06/26 13:12:36;;;;;;;8.18;4.35;;;;;;;24.21;43.01;92763.41;4773878;30;20055;-80
2021/06/26 13:15:05;;;;;;;53.20;9.98;;;;;;;24.64;44.13;92766.56;4754332;30;20052;-80
2021/06/26 13:17:31;;;;;;;9.95;4.07;;;;;;;24.80;42.59;92762.88;4771259;30;20143;-80
2021/06/26 13:19:59;;;;;;;11.73;4.32;;;;;;;24.60;42.99;92760.41;4773288;30;20519;-80
2021/06/26 13:22:25;;;;;;;8.98;3.97;;;;;;;24.87;41.38;92754.91;4753326;30;20507;-80
2021/06/26 13:24:51;;;;;;;8.98;3.58;;;;;;;25.19;40.91;92759.81;4745229;30;20086;-80
2021/06/26 13:27:18;;;;;;;16.98;3.90;;;;;;;25.17;41.06;92759.38;4756700;30;20143;-80
2021/06/26 13:29:44;;;;;;;9.38;4.00;;;;;;;25.30;39.51;92745.34;4768522;30;20047;-80
2021/06/26 13:32:11;;;;;;;6.57;4.45;;;;;;;25.09;41.60;92755.88;4765905;30;20490;-80
2021/06/26 13:34:37;;;;;;;10.15;4.10;;;;;;;25.49;42.35;92744.34;4760202;30;20043;-80
2021/06/26 13:37:04;;;;;;;6.53;3.90;;;;;;;25.39;41.40;92752.28;4768341;30;20046;-80
2021/06/26 13:39:30;;;;;;;8.95;3.92;;;;;;;25.49;43.36;92754.28;4754027;30;20058;-80
2021/06/26 13:41:56;;;;;;;11.57;4.15;;;;;;;25.62;44.46;92752.06;4756466;30;20123;-80
2021/06/26 13:44:21;;;;;;;6.55;3.75;;;;;;;25.62;45.46;92757.41;4756453;30;21156;-80
2021/06/26 13:46:47;;;;;;;26.55;5.90;;;;;;;25.82;44.55;92760.59;4768040;30;20048;-80
2021/06/26 13:49:13;;;;;;;34.13;5.88;;;;;;;24.92;47.09;92754.56;4741895;30;20132;-80
2021/06/26 13:51:39;;;;;;;8.57;4.10;;;;;;;24.94;45.52;92750.38;4756045;30;20052;-80
2021/06/26 13:54:06;;;;;;;25.73;5.60;;;;;;;24.99;46.53;92751.19;4771252;30;20130;-80
2021/06/26 13:56:32;;;;;;;12.63;4.10;;;;;;;25.20;45.61;92754.06;4770092;30;20472;-80
2021/06/26 13:58:57;;;;;;;11.38;4.43;;;;;;;25.67;46.04;92752.47;4740681;30;20064;-80
2021/06/26 14:01:23;;;;;;;9.57;4.00;;;;;;;26.06;44.30;92743.13;4752195;30;20089;-80
2021/06/26 14:03:50;;;;;;;11.40;4.40;;;;;;;26.73;42.54;92742.56;4761052;30;22068;-79
2021/06/26 14:06:25;;;;;;;14.43;5.25;;;;;;;26.69;43.23;92743.72;4768038;30;20040;-79
2021/06/26 14:08:51;;;;;;;8.10;4.03;;;;;;;26.37;41.71;92736.34;4752880;30;20056;-79
2021/06/26 14:11:17;;;;;;;9.75;3.97;;;;;;;26.51;41.86;92733.69;4766025;30;20439;-78
2021/06/26 14:13:42;;;;;;;9.35;4.20;;;;;;;26.55;40.54;92731.03;4751952;30;20056;-78
2021/06/26 14:16:09;;;;;;;11.05;4.47;;;;;;;26.51;40.57;92731.00;4770807;30;20145;-78
2021/06/26 14:18:35;;;;;;;9.50;3.95;;;;;;;26.68;41.99;92726.84;4770998;30;20055;-77
2021/06/26 14:21:02;;;;;;;10.45;4.10;;;;;;;26.60;42.43;92732.59;4769069;30;20051;-78
2021/06/26 14:23:27;;;;;;;11.30;4.35;;;;;;;26.35;43.81;92739.41;4767172;30;20056;-78
2021/06/26 14:25:53;;;;;;;10.98;4.28;;;;;;;26.50;44.20;92744.78;4760937;30;20052;-78
2021/06/26 14:28:22;;;;;;;14.45;4.63;;;;;;;26.44;42.66;92743.66;4771069;30;20040;-78
2021/06/26 14:30:47;;;;;;;11.50;4.22;;;;;;;26.49;42.62;92745.94;4769022;30;20128;-79
2021/06/26 14:33:13;;;;;;;7.78;4.20;;;;;;;25.93;43.91;92740.00;4781306;29;20052;-78
2021/06/26 14:35:39;;;;;;;8.10;4.38;;;;;;;25.91;44.77;92742.28;4767751;30;20060;-79
2021/06/26 14:38:04;;;;;;;14.07;4.82;;;;;;;25.82;44.49;92734.53;4780117;29;20048;-79
2021/06/26 14:40:30;;;;;;;11.25;4.65;;;;;;;26.01;44.71;92743.47;4768479;30;20527;-78
2021/06/26 14:42:56;;;;;;;9.05;4.43;;;;;;;25.71;45.22;92745.25;4767505;30;20122;-78
2021/06/26 14:45:22;;;;;;;9.55;4.75;;;;;;;25.82;44.49;92741.81;4770412;30;20040;-78
2021/06/26 14:47:47;;;;;;;12.40;4.60;;;;;;;25.89;44.86;92734.59;4755870;30;20062;-78
2021/06/26 14:50:13;;;;;;;14.18;4.47;;;;;;;25.98;45.02;92739.63;4783731;30;20064;-78
2021/06/26 14:52:39;;;;;;;13.13;4.40;;;;;;;26.16;45.08;92731.66;4768546;30;20086;-78
2021/06/26 14:55:06;;;;;;;11.48;4.43;;;;;;;25.76;45.83;92731.47;4770473;30;20056;-78
2021/06/26 14:57:32;;;;;;;11.63;4.15;;;;;;;25.71;44.81;92731.03;4757194;30;20044;-78
2021/06/26 14:59:57;;;;;;;10.27;4.57;;;;;;;25.79;43.89;92734.53;4759644;30;20052;-78
2021/06/26 15:02:24;;;;;;;8.07;5.03;;;;;;;25.41;45.97;92731.25;4758711;30;20515;-79
2021/06/26 15:04:51;;;;;;;13.00;4.57;;;;;;;26.35;43.79;92723.28;4752442;30;20052;-78
2021/06/26 15:07:16;;;;;;;11.77;5.10;;;;;;;26.49;43.77;92719.09;4777228;30;20052;-78
2021/06/26 15:09:42;;;;;;;11.60;4.40;;;;;;;27.09;41.43;92721.13;4768013;30;20063;-78
2021/06/26 15:12:08;;;;;;;8.57;4.30;;;;;;;27.18;40.77;92718.06;4777357;30;20063;-78
2021/06/26 15:14:34;;;;;;;8.52;4.22;;;;;;;27.40;41.73;92721.50;4756825;30;20143;-78
2021/06/26 15:17:00;;;;;;;10.25;4.30;;;;;;;27.91;39.45;92712.19;4765016;30;20356;-79
2021/06/26 15:19:25;;;;;;;8.65;4.50;;;;;;;28.12;37.93;92713.25;4756259;30;20044;-79
2021/06/26 15:21:51;;;;;;;9.18;4.28;;;;;;;27.64;39.34;92716.47;4780163;29;20071;-79
2021/06/26 15:24:17;;;;;;;11.40;5.18;;;;;;;26.34;40.98;92716.41;4754086;30;20131;-79
2021/06/26 15:26:43;;;;;;;12.93;5.40;;;;;;;25.93;41.68;92719.31;4764934;30;20511;-79
2021/06/26 15:29:10;;;;;;;10.30;5.22;;;;;;;26.02;42.01;92720.88;4759725;30;20114;-78
2021/06/26 15:31:42;;;;;;;8.55;4.20;;;;;;;26.47;40.66;92724.09;4769732;30;20058;-78
2021/06/26 15:34:09;;;;;;;10.57;4.80;;;;;;;26.44;42.79;92730.22;4768908;30;20551;-78
2021/06/26 15:36:39;;;;;;;9.98;4.25;;;;;;;26.87;41.65;92730.31;4768048;30;20069;-79
2021/06/26 15:39:06;;;;;;;11.25;4.25;;;;;;;27.17;40.48;92738.75;4768290;30;20531;-79
2021/06/26 15:41:32;;;;;;;12.35;4.90;;;;;;;27.37;38.38;92725.72;4767735;30;20567;-78
2021/06/26 15:43:57;;;;;;;14.30;5.93;;;;;;;27.24;37.61;92724.59;4770210;30;20055;-79
2021/06/26 15:46:24;;;;;;;14.65;6.75;;;;;;;27.38;38.74;92723.81;4770641;30;20052;-79
2021/06/26 15:48:50;;;;;;;14.88;4.40;;;;;;;27.55;39.59;92722.25;4769268;30;20136;-78
2021/06/26 15:51:16;;;;;;;15.48;4.70;;;;;;;27.45;39.41;92714.97;4783947;30;20095;-78
2021/06/26 15:53:41;;;;;;;10.52;5.00;;;;;;;26.77;39.23;92711.13;4750756;30;20048;-78
2021/06/26 15:56:07;;;;;;;9.55;4.88;;;;;;;26.93;39.59;92712.66;4764167;30;20491;-78
2021/06/26 15:58:33;;;;;;;9.18;5.55;;;;;;;27.00;38.35;92707.31;4768076;30;20359;-78
2021/06/26 16:00:59;;;;;;;16.00;4.97;;;;;;;27.25;38.39;92706.56;4760414;30;20067;-79
2021/06/26 16:03:25;;;;;;;8.95;4.47;;;;;;;27.44;38.91;92706.13;4786662;30;20104;-79
2021/06/26 16:05:50;;;;;;;9.40;4.57;;;;;;;27.64;38.98;92703.03;4785546;29;20043;-85
2021/06/26 16:08:16;;;;;;;9.90;4.15;;;;;;;27.50;38.68;92707.28;4783159;29;20064;-80
2021/06/26 16:10:42;;;;;;;10.18;4.60;;;;;;;26.20;40.23;92710.97;4784998;29;20496;-78
2021/06/26 16:13:08;;;;;;;11.38;4.32;;;;;;;25.87;40.92;92710.09;4771438;30;20091;-81
2021/06/26 16:15:34;;;;;;;9.23;4.60;;;;;;;25.96;40.62;92699.78;4770658;30;20051;-81
2021/06/26 16:17:59;;;;;;;11.15;5.05;;;;;;;25.99;39.76;92697.50;4773883;30;20477;-82
2021/06/26 16:20:25;;;;;;;8.23;4.50;;;;;;;26.00;40.74;92696.34;4757451;29;20065;-81
2021/06/26 16:22:51;;;;;;;14.13;4.65;;;;;;;25.94;41.14;92694.03;4787480;29;20058;-81
2021/06/26 16:25:17;;;;;;;9.07;4.28;;;;;;;26.05;40.20;92693.28;4785778;29;20055;-82
2021/06/26 16:27:43;;;;;;;9.13;4.25;;;;;;;26.42;40.26;92692.25;4780775;30;20051;-83
2021/06/26 16:30:10;;;;;;;11.63;4.45;;;;;;;26.74;40.12;92685.03;4771588;30;20079;-82
2021/06/26 16:32:37;;;;;;;10.73;4.63;;;;;;;26.56;39.60;92684.25;4789123;29;20048;-81
2021/06/26 16:35:04;;;;;;;13.13;4.90;;;;;;;26.77;39.95;92691.56;4777878;30;20058;-82
2021/06/26 16:37:31;;;;;;;12.02;5.18;;;;;;;26.90;39.48;92686.56;4777691;29;20054;-81